createdAt,value
2023-04-16T00:00:56.432Z,11.43
2023-04-16T00:03:23.863Z,11.30
2023-04-16T00:05:50.773Z,10.38
2023-04-16T00:08:17.530Z,12.13
2023-04-16T00:10:43.974Z,10.43
2023-04-16T00:13:10.588Z,12.55
2023-04-16T00:15:37.028Z,13.10
2023-04-16T00:18:03.794Z,13.80
2023-04-16T00:20:30.270Z,12.48
2023-04-16T00:22:56.789Z,10.90
2023-04-16T00:25:23.425Z,10.20
2023-04-16T00:27:49.909Z,11.98
2023-04-16T00:30:16.802Z,11.30
2023-04-16T00:32:43.312Z,10.38
2023-04-16T00:35:09.819Z,12.07
2023-04-16T00:37:36.275Z,11.52
2023-04-16T00:40:02.910Z,14.10
2023-04-16T00:42:29.641Z,11.80
2023-04-16T00:44:56.106Z,12.07
2023-04-16T00:47:22.962Z,13.68
2023-04-16T00:49:50.170Z,13.63
2023-04-16T00:52:17.130Z,11.60
2023-04-16T00:54:43.818Z,11.80
2023-04-16T00:57:10.819Z,15.45
2023-04-16T00:59:37.451Z,15.98
2023-04-16T01:02:04.048Z,11.52
2023-04-16T01:04:31.410Z,13.20
2023-04-16T01:06:58.028Z,12.82
2023-04-16T01:09:24.616Z,13.10
2023-04-16T01:11:51.243Z,12.32
2023-04-16T01:14:18.003Z,11.70
2023-04-16T01:16:44.451Z,12.32
2023-04-16T01:19:11.181Z,14.43
2023-04-16T01:21:37.935Z,15.20
2023-04-16T01:24:04.963Z,12.43
2023-04-16T01:26:32.368Z,12.35
2023-04-16T01:29:00.328Z,15.27
2023-04-16T01:31:27.036Z,13.13
2023-04-16T01:34:06.786Z,14.18
2023-04-16T01:36:34.772Z,15.98
2023-04-16T01:39:01.292Z,15.15
2023-04-16T01:41:27.867Z,15.95
2023-04-16T01:43:54.292Z,16.15
2023-04-16T01:46:27.117Z,14.75
2023-04-16T01:48:54.923Z,14.25
2023-04-16T01:51:22.031Z,15.57
2023-04-16T01:54:09.281Z,15.40
2023-04-16T01:56:55.910Z,15.70
2023-04-16T01:59:42.681Z,13.50
2023-04-16T02:02:30.270Z,14.90
2023-04-16T02:05:17.130Z,18.63
2023-04-16T02:08:03.709Z,16.88
2023-04-16T02:10:30.434Z,20.70
2023-04-16T02:12:57.509Z,15.80
2023-04-16T02:15:25.225Z,19.15
2023-04-16T02:17:56.563Z,17.90
2023-04-16T02:20:24.646Z,15.98
2023-04-16T02:25:24.193Z,17.30
2023-04-16T02:27:53.187Z,14.07
2023-04-16T02:30:38.135Z,17.83
2023-04-16T02:33:07.377Z,14.70
2023-04-16T02:35:35.333Z,15.52
2023-04-16T02:38:02.581Z,15.10
2023-04-16T02:40:30.459Z,16.33
2023-04-16T02:42:57.859Z,18.83
2023-04-16T02:45:24.789Z,14.68
2023-04-16T02:47:51.582Z,15.32
2023-04-16T02:50:18.787Z,20.13
2023-04-16T02:52:45.406Z,20.23
2023-04-16T02:55:12.079Z,19.08
2023-04-16T02:57:38.581Z,17.80
2023-04-16T03:00:05.812Z,19.10
2023-04-16T03:02:32.639Z,19.08
2023-04-16T03:04:59.303Z,17.45
2023-04-16T03:07:26.274Z,19.00
2023-04-16T03:09:52.842Z,18.08
2023-04-16T03:12:19.321Z,19.08
2023-04-16T03:14:46.180Z,18.58
2023-04-16T03:17:12.658Z,18.45
2023-04-16T03:19:39.448Z,19.65
2023-04-16T03:22:06.190Z,17.75
2023-04-16T03:24:33.678Z,15.93
2023-04-16T03:27:01.996Z,17.02
2023-04-16T03:29:28.911Z,23.23
2023-04-16T03:31:56.784Z,17.00
2023-04-16T03:34:23.573Z,16.70
2023-04-16T03:36:50.241Z,18.75
2023-04-16T03:39:17.158Z,17.42
2023-04-16T03:41:43.586Z,21.80
2023-04-16T03:44:10.353Z,20.17
2023-04-16T03:46:36.899Z,22.92
2023-04-16T03:49:03.724Z,18.95
2023-04-16T03:51:30.821Z,17.70
2023-04-16T03:53:57.548Z,21.25
2023-04-16T03:56:25.656Z,20.40
2023-04-16T03:58:53.014Z,19.40
2023-04-16T04:01:19.537Z,16.48
2023-04-16T04:03:46.730Z,17.98
2023-04-16T04:06:14.955Z,18.13
2023-04-16T04:08:41.491Z,16.38
2023-04-16T04:11:08.350Z,18.33
2023-04-16T04:13:35.714Z,17.90
2023-04-16T04:16:03.626Z,16.90
2023-04-16T04:18:30.144Z,18.25
2023-04-16T04:20:57.251Z,19.73
2023-04-16T04:23:27.502Z,17.85
2023-04-16T04:25:54.106Z,22.58
2023-04-16T04:28:20.843Z,19.95
2023-04-16T04:30:47.862Z,20.35
2023-04-16T04:33:14.341Z,22.15
2023-04-16T04:35:41.608Z,19.27
2023-04-16T04:38:08.883Z,16.85
2023-04-16T04:40:35.730Z,17.63
2023-04-16T04:43:03.402Z,19.08
2023-04-16T04:45:31.817Z,16.98
2023-04-16T04:47:58.841Z,18.67
2023-04-16T04:50:25.610Z,20.10
2023-04-16T04:52:52.072Z,19.08
2023-04-16T04:55:18.635Z,18.55
2023-04-16T04:57:45.517Z,19.88
2023-04-16T05:00:12.438Z,18.40
2023-04-16T05:02:44.704Z,17.80
2023-04-16T05:05:11.475Z,18.02
2023-04-16T05:07:38.040Z,15.25
2023-04-16T05:10:04.915Z,17.67
2023-04-16T05:12:31.566Z,20.85
2023-04-16T05:14:58.113Z,18.25
2023-04-16T05:17:24.705Z,19.88
2023-04-16T05:19:52.139Z,19.90
2023-04-16T05:22:19.063Z,21.30
2023-04-16T05:24:45.843Z,18.45
2023-04-16T05:27:12.349Z,17.85
2023-04-16T05:29:38.904Z,20.40
2023-04-16T05:32:05.578Z,24.55
2023-04-16T05:34:32.387Z,19.48
2023-04-16T05:36:58.928Z,17.92
2023-04-16T05:39:25.673Z,19.50
2023-04-16T05:41:52.325Z,17.85
2023-04-16T05:44:18.787Z,19.75
2023-04-16T05:46:45.430Z,17.95
2023-04-16T05:49:12.140Z,17.63
2023-04-16T05:51:39.007Z,18.73
2023-04-16T05:54:05.508Z,18.70
2023-04-16T05:56:32.168Z,18.77
2023-04-16T05:58:58.584Z,19.42
2023-04-16T06:01:25.430Z,18.88
2023-04-16T06:03:52.191Z,19.77
2023-04-16T06:06:18.822Z,20.15
2023-04-16T06:08:45.244Z,20.33
2023-04-16T06:11:12.229Z,18.70
2023-04-16T06:13:39.040Z,19.30
2023-04-16T06:16:06.292Z,18.45
2023-04-16T06:18:32.802Z,20.65
2023-04-16T06:20:59.608Z,17.20
2023-04-16T06:23:26.191Z,17.50
2023-04-16T06:25:52.749Z,21.92
2023-04-16T06:28:19.228Z,17.05
2023-04-16T06:30:46.766Z,17.65
2023-04-16T06:33:13.609Z,20.55
2023-04-16T06:35:40.121Z,18.30
2023-04-16T06:38:06.878Z,16.65
2023-04-16T06:40:33.490Z,17.35
2023-04-16T06:43:00.041Z,16.17
2023-04-16T06:45:26.808Z,14.38
2023-04-16T06:47:53.369Z,17.85
2023-04-16T06:50:19.846Z,15.32
2023-04-16T06:52:46.632Z,16.45
2023-04-16T06:55:13.009Z,18.95
2023-04-16T06:57:40.784Z,18.00
2023-04-16T07:00:08.027Z,20.65
2023-04-16T07:02:35.044Z,16.10
2023-04-16T07:05:01.781Z,18.10
2023-04-16T07:07:28.253Z,16.70
2023-04-16T07:09:55.033Z,18.25
2023-04-16T07:12:22.836Z,17.10
2023-04-16T07:14:49.632Z,20.83
2023-04-16T07:17:16.282Z,20.42
2023-04-16T07:19:42.676Z,20.95
2023-04-16T07:22:09.250Z,17.67
2023-04-16T07:24:35.853Z,21.27
2023-04-16T07:27:02.397Z,20.90
2023-04-16T07:29:29.019Z,20.90
2023-04-16T07:31:55.673Z,22.52
2023-04-16T07:34:22.538Z,23.13
2023-04-16T07:36:48.990Z,25.40
2023-04-16T07:39:15.521Z,23.67
2023-04-16T07:41:43.054Z,24.85
2023-04-16T07:44:09.568Z,27.08
2023-04-16T07:46:43.615Z,24.10
2023-04-16T07:49:13.285Z,25.00
2023-04-16T07:51:39.767Z,28.70
2023-04-16T07:54:06.431Z,28.40
2023-04-16T07:56:32.923Z,33.30
2023-04-16T07:59:08.009Z,31.00
2023-04-16T08:01:45.493Z,32.10
2023-04-16T08:04:12.264Z,29.45
2023-04-16T08:06:39.001Z,30.17
2023-04-16T08:09:05.761Z,31.50
2023-04-16T08:11:32.311Z,29.13
2023-04-16T08:13:58.918Z,29.40
2023-04-16T08:16:25.578Z,27.33
2023-04-16T08:18:52.247Z,29.65
2023-04-16T08:21:18.778Z,28.00
2023-04-16T08:23:45.424Z,30.55
2023-04-16T08:26:11.859Z,30.35
2023-04-16T08:28:38.544Z,27.67
2023-04-16T08:31:05.371Z,32.42
2023-04-16T08:33:32.130Z,28.10
2023-04-16T08:35:58.782Z,28.50
2023-04-16T08:38:26.289Z,28.85
2023-04-16T08:40:54.972Z,28.15
2023-04-16T08:43:23.715Z,28.50
2023-04-16T08:45:50.902Z,29.13
2023-04-16T08:48:20.591Z,27.00
2023-04-16T08:50:52.294Z,25.80
2023-04-16T08:53:29.575Z,28.48
2023-04-16T08:55:59.613Z,27.02
2023-04-16T08:58:29.584Z,29.83
2023-04-16T09:00:56.312Z,25.17
2023-04-16T09:03:22.959Z,30.52
2023-04-16T09:05:49.574Z,28.80
2023-04-16T09:08:17.303Z,25.60
2023-04-16T09:10:43.793Z,27.98
2023-04-16T09:13:11.635Z,26.08
2023-04-16T09:15:39.373Z,26.95
2023-04-16T09:18:05.994Z,23.98
2023-04-16T09:20:32.523Z,26.27
2023-04-16T09:22:59.007Z,24.75
2023-04-16T09:25:26.270Z,24.98
2023-04-16T09:27:52.749Z,30.52
2023-04-16T09:30:21.608Z,26.45
2023-04-16T09:32:48.852Z,26.05
2023-04-16T09:35:15.769Z,24.50
2023-04-16T09:37:42.368Z,26.23
2023-04-16T09:40:09.616Z,24.40
2023-04-16T09:42:37.152Z,24.17
2023-04-16T09:45:05.682Z,27.55
2023-04-16T09:47:44.772Z,26.38
2023-04-16T09:50:19.117Z,25.00
2023-04-16T09:52:50.114Z,25.42
2023-04-16T09:55:16.715Z,27.65
2023-04-16T09:57:43.286Z,26.13
2023-04-16T10:00:10.654Z,22.90
2023-04-16T10:02:42.071Z,24.25
2023-04-16T10:05:09.472Z,21.52
2023-04-16T10:07:37.139Z,24.10
2023-04-16T10:10:05.002Z,22.23
2023-04-16T10:12:32.659Z,21.88
2023-04-16T10:14:59.279Z,24.77
2023-04-16T10:17:26.860Z,23.48
2023-04-16T10:19:54.661Z,23.10
2023-04-16T10:22:21.362Z,25.75
2023-04-16T10:24:48.819Z,23.90
2023-04-16T10:27:16.598Z,24.70
2023-04-16T10:29:44.537Z,24.70
2023-04-16T10:32:11.779Z,24.17
2023-04-16T10:34:39.001Z,26.30
2023-04-16T10:37:05.513Z,22.67
2023-04-16T10:39:37.416Z,26.30
2023-04-16T10:42:12.317Z,22.67
2023-04-16T10:44:42.799Z,22.98
2023-04-16T10:47:13.097Z,22.67
2023-04-16T10:49:40.436Z,25.55
2023-04-16T10:52:17.030Z,22.00
2023-04-16T10:54:43.845Z,21.05
2023-04-16T10:57:15.994Z,21.27
2023-04-16T10:59:43.994Z,20.67
2023-04-16T11:02:18.915Z,23.48
2023-04-16T11:04:47.589Z,23.70
2023-04-16T11:07:22.551Z,21.23
2023-04-16T11:09:52.099Z,19.90
2023-04-16T11:12:27.664Z,20.30
2023-04-16T11:14:59.337Z,22.75
2023-04-16T11:17:29.562Z,20.25
2023-04-16T11:19:56.451Z,23.10
2023-04-16T11:22:23.018Z,25.58
2023-04-16T11:24:57.134Z,25.60
2023-04-16T11:27:24.465Z,24.70
2023-04-16T11:30:02.032Z,21.38
2023-04-16T11:32:32.592Z,18.70
2023-04-16T11:35:03.388Z,22.67
2023-04-16T11:37:34.829Z,21.13
2023-04-16T11:40:04.753Z,25.85
2023-04-16T11:42:31.254Z,23.35
2023-04-16T11:45:00.581Z,24.35
2023-04-16T11:47:27.614Z,21.13
2023-04-16T11:49:54.200Z,25.85
2023-04-16T11:52:32.379Z,25.00
2023-04-16T11:54:59.829Z,22.85
2023-04-16T11:57:31.083Z,24.60
2023-04-16T12:00:01.635Z,24.70
2023-04-16T12:02:43.159Z,24.25
2023-04-16T12:05:28.701Z,24.77
2023-04-16T12:07:56.203Z,23.52
2023-04-16T12:10:22.753Z,24.70
2023-04-16T12:12:49.543Z,26.60
2023-04-16T12:15:16.519Z,23.00
2023-04-16T12:17:43.174Z,23.63
2023-04-16T12:20:11.996Z,23.63
2023-04-16T12:22:46.898Z,27.48
2023-04-16T12:25:15.521Z,22.38
2023-04-16T12:27:53.266Z,22.17
2023-04-16T12:30:22.870Z,23.58
2023-04-16T12:32:52.248Z,24.55
2023-04-16T12:35:33.117Z,22.27
2023-04-16T12:40:26.827Z,25.90
2023-04-16T12:42:53.265Z,23.45
2023-04-16T12:45:19.937Z,21.25
2023-04-16T12:47:46.990Z,27.60
2023-04-16T12:50:13.629Z,29.20
2023-04-16T12:52:40.110Z,32.40
2023-04-16T12:55:07.048Z,25.38
2023-04-16T12:57:33.599Z,26.60
2023-04-16T13:00:00.068Z,24.40
2023-04-16T13:02:27.138Z,25.65
2023-04-16T13:04:54.290Z,25.70
2023-04-16T13:07:21.234Z,24.38
2023-04-16T13:09:47.891Z,27.38
2023-04-16T13:12:14.378Z,25.27
2023-04-16T13:14:43.307Z,27.38
2023-04-16T13:17:11.478Z,23.70
2023-04-16T13:19:38.132Z,27.60
2023-04-16T13:22:04.584Z,25.75
2023-04-16T13:24:31.501Z,27.45
2023-04-16T13:26:58.216Z,28.00
2023-04-16T13:29:24.752Z,27.95
2023-04-16T13:31:51.432Z,27.65
2023-04-16T13:34:18.209Z,26.23
2023-04-16T13:36:44.936Z,32.53
2023-04-16T13:39:11.780Z,30.13
2023-04-16T13:41:38.738Z,31.30
2023-04-16T13:44:05.844Z,28.88
2023-04-16T13:46:32.565Z,27.40
2023-04-16T13:48:59.380Z,31.40
2023-04-16T13:51:27.239Z,33.28
2023-04-16T13:53:55.649Z,28.27
2023-04-16T13:56:22.383Z,29.92
2023-04-16T13:58:49.426Z,27.85
2023-04-16T14:01:17.159Z,29.02
2023-04-16T14:03:44.153Z,26.58
2023-04-16T14:06:11.101Z,29.42
2023-04-16T14:08:38.181Z,33.33
2023-04-16T14:11:06.477Z,31.40
2023-04-16T14:13:33.181Z,31.85
2023-04-16T14:15:59.836Z,33.78
2023-04-16T14:18:26.468Z,33.78
2023-04-16T14:20:53.027Z,30.10
2023-04-16T14:23:19.434Z,36.08
2023-04-16T14:25:46.190Z,32.67
2023-04-16T14:28:14.313Z,31.70
2023-04-16T14:30:42.462Z,32.77
2023-04-16T14:33:09.126Z,34.35
2023-04-16T14:35:36.132Z,31.02
2023-04-16T14:38:02.747Z,34.33
2023-04-16T14:40:29.515Z,39.60
2023-04-16T14:42:56.134Z,35.38
2023-04-16T14:45:23.088Z,32.47
2023-04-16T14:47:50.863Z,32.53
2023-04-16T14:50:17.499Z,32.95
2023-04-16T14:52:44.270Z,32.92
2023-04-16T14:55:10.795Z,36.65
2023-04-16T14:57:38.510Z,36.53
2023-04-16T15:00:11.915Z,36.42
2023-04-16T15:02:38.808Z,34.92
2023-04-16T15:05:07.728Z,32.42
2023-04-16T15:07:34.221Z,35.03
2023-04-16T15:10:01.013Z,38.28
2023-04-16T15:12:27.655Z,34.20
2023-04-16T15:14:54.364Z,31.67
2023-04-16T15:17:22.980Z,32.78
2023-04-16T15:19:52.249Z,30.70
2023-04-16T15:22:19.596Z,31.05
2023-04-16T15:24:46.599Z,31.58
2023-04-16T15:27:14.787Z,32.35
2023-04-16T15:29:41.704Z,36.08
2023-04-16T15:32:08.541Z,35.42
2023-04-16T15:34:35.071Z,34.50
2023-04-16T15:37:01.818Z,36.50
2023-04-16T15:39:28.235Z,33.08
2023-04-16T15:42:01.493Z,31.52
2023-04-16T15:44:28.418Z,28.08
2023-04-16T15:46:54.917Z,32.40
2023-04-16T15:49:21.372Z,29.42
2023-04-16T15:51:48.117Z,29.75
2023-04-16T15:54:14.809Z,28.65
2023-04-16T15:56:41.635Z,27.38
2023-04-16T15:59:08.300Z,28.05
2023-04-16T16:01:34.918Z,28.33
2023-04-16T16:04:07.688Z,29.73
2023-04-16T16:06:34.592Z,26.52
2023-04-16T16:09:01.670Z,23.42
2023-04-16T16:11:28.411Z,24.92
2023-04-16T16:13:55.096Z,26.27
2023-04-16T16:16:21.926Z,23.13
2023-04-16T16:18:48.848Z,20.70
2023-04-16T16:21:15.394Z,24.52
2023-04-16T16:23:41.963Z,24.52
2023-04-16T16:26:09.395Z,23.63
2023-04-16T16:28:39.075Z,22.05
2023-04-16T16:31:06.774Z,23.10
2023-04-16T16:33:33.379Z,22.73
2023-04-16T16:35:59.977Z,26.85
2023-04-16T16:38:27.155Z,26.50
2023-04-16T16:40:53.688Z,27.17
2023-04-16T16:43:20.331Z,24.13
2023-04-16T16:45:47.245Z,26.45
2023-04-16T16:48:13.838Z,29.83
2023-04-16T16:50:40.672Z,25.77
2023-04-16T16:53:07.514Z,27.00
2023-04-16T16:55:35.085Z,32.92
2023-04-16T16:58:01.947Z,31.05
2023-04-16T17:00:28.952Z,29.05
2023-04-16T17:02:55.479Z,30.42
2023-04-16T17:05:22.504Z,31.65
2023-04-16T17:07:49.065Z,29.63
2023-04-16T17:10:21.907Z,28.88
2023-04-16T17:12:49.401Z,27.42
2023-04-16T17:15:17.551Z,28.35
2023-04-16T17:17:46.169Z,27.85
2023-04-16T17:20:12.667Z,30.05
2023-04-16T17:22:39.931Z,30.55
2023-04-16T17:25:07.991Z,29.23
2023-04-16T17:27:34.761Z,29.50
2023-04-16T17:30:02.480Z,28.67
2023-04-16T17:32:29.950Z,30.10
2023-04-16T17:34:56.656Z,32.97
2023-04-16T17:37:23.474Z,30.80
2023-04-16T17:39:50.445Z,28.38
2023-04-16T17:42:17.589Z,25.33
2023-04-16T17:44:44.392Z,29.23
2023-04-16T17:47:12.667Z,24.00
2023-04-16T17:49:39.374Z,22.77
2023-04-16T17:52:06.419Z,23.08
2023-04-16T17:54:32.874Z,23.92
2023-04-16T17:56:59.516Z,25.20
2023-04-16T17:59:26.388Z,23.95
2023-04-16T18:01:53.151Z,26.70
2023-04-16T18:04:19.899Z,25.90
2023-04-16T18:06:46.651Z,31.17
2023-04-16T18:09:14.288Z,30.75
2023-04-16T18:11:40.798Z,33.33
2023-04-16T18:14:13.189Z,31.08
2023-04-16T18:16:51.306Z,32.60
2023-04-16T18:19:20.836Z,35.40
2023-04-16T18:21:47.482Z,33.77
2023-04-16T18:24:15.072Z,29.50
2023-04-16T18:26:41.614Z,32.58
2023-04-16T18:29:09.146Z,30.75
2023-04-16T18:31:36.093Z,32.78
2023-04-16T18:34:02.677Z,29.60
2023-04-16T18:36:29.432Z,28.98
2023-04-16T18:39:15.642Z,26.13
2023-04-16T18:41:43.638Z,27.20
2023-04-16T18:44:10.892Z,28.88
2023-04-16T18:46:37.460Z,31.23
2023-04-16T18:49:04.069Z,26.05
2023-04-16T18:51:30.723Z,32.72
2023-04-16T18:53:57.347Z,31.02
2023-04-16T18:56:23.893Z,32.45
2023-04-16T18:58:50.540Z,28.63
2023-04-16T19:01:17.945Z,33.53
2023-04-16T19:03:45.354Z,29.45
2023-04-16T19:06:11.904Z,30.77
2023-04-16T19:08:38.374Z,24.50
2023-04-16T19:11:04.876Z,23.13
2023-04-16T19:13:32.305Z,25.67
2023-04-16T19:15:59.761Z,22.38
2023-04-16T19:18:26.620Z,23.45
2023-04-16T19:21:00.489Z,22.90
2023-04-16T19:23:27.384Z,21.85
2023-04-16T19:25:56.125Z,22.88
2023-04-16T19:28:23.439Z,21.90
2023-04-16T19:30:51.282Z,23.05
2023-04-16T19:33:18.473Z,24.17
2023-04-16T19:35:46.278Z,22.52
2023-04-16T19:38:13.268Z,23.55
2023-04-16T19:40:40.385Z,24.85
2023-04-16T19:43:06.897Z,20.77
2023-04-16T19:45:33.550Z,27.27
2023-04-16T19:48:00.293Z,26.63
2023-04-16T19:50:27.036Z,28.15
2023-04-16T19:52:53.504Z,23.83
2023-04-16T19:55:20.044Z,30.90
2023-04-16T19:57:47.808Z,23.50
2023-04-16T20:00:14.798Z,22.48
2023-04-16T20:02:41.413Z,23.17
2023-04-16T20:05:08.517Z,21.48
2023-04-16T20:07:35.413Z,25.08
2023-04-16T20:10:02.865Z,22.08
2023-04-16T20:12:29.453Z,21.30
2023-04-16T20:14:55.977Z,17.63
2023-04-16T20:17:23.073Z,16.13
2023-04-16T20:19:51.123Z,17.65
2023-04-16T20:22:18.572Z,15.98
2023-04-16T20:24:47.818Z,15.35
2023-04-16T20:27:15.261Z,17.73
2023-04-16T20:29:42.214Z,14.75
2023-04-16T20:32:08.859Z,17.63
2023-04-16T20:34:36.528Z,15.38
2023-04-16T20:37:03.039Z,17.27
2023-04-16T20:39:34.090Z,19.67
2023-04-16T20:42:00.812Z,20.02
2023-04-16T20:44:33.322Z,19.98
2023-04-16T20:47:00.132Z,18.13
2023-04-16T20:49:26.646Z,18.48
2023-04-16T20:51:53.321Z,16.65
2023-04-16T20:54:19.949Z,17.48
2023-04-16T20:56:47.139Z,15.40
2023-04-16T20:59:13.760Z,16.33
2023-04-16T21:01:40.581Z,18.38
2023-04-16T21:04:07.876Z,17.77
2023-04-16T21:06:38.443Z,16.30
2023-04-16T21:11:34.557Z,16.55
2023-04-16T21:14:01.810Z,21.90
2023-04-16T21:16:29.067Z,18.05
2023-04-16T21:18:56.364Z,19.23
2023-04-16T21:21:24.039Z,20.58
2023-04-16T21:23:50.925Z,18.80
2023-04-16T21:26:17.498Z,20.50
2023-04-16T21:28:44.152Z,19.85
2023-04-16T21:31:11.038Z,20.65
2023-04-16T21:33:37.649Z,20.00
2023-04-16T21:36:04.235Z,17.55
2023-04-16T21:38:30.819Z,15.80
2023-04-16T21:40:57.401Z,20.23
2023-04-16T21:43:24.184Z,20.73
2023-04-16T21:45:53.766Z,20.25
2023-04-16T21:48:21.034Z,17.80
2023-04-16T21:50:47.659Z,18.42
2023-04-16T21:53:14.184Z,20.83
2023-04-16T21:55:41.728Z,22.65
2023-04-16T21:58:08.156Z,19.33
2023-04-16T22:00:34.788Z,21.40
2023-04-16T22:03:01.394Z,21.05
2023-04-16T22:05:27.991Z,22.50
2023-04-16T22:07:54.548Z,18.38
2023-04-16T22:10:21.182Z,19.02
2023-04-16T22:12:47.932Z,19.30
2023-04-16T22:15:14.661Z,20.10
2023-04-16T22:17:41.421Z,21.85
2023-04-16T22:20:14.529Z,20.70
2023-04-16T22:22:42.318Z,19.75
2023-04-16T22:25:09.665Z,20.63
2023-04-16T22:27:36.646Z,20.00
2023-04-16T22:30:04.208Z,18.17
2023-04-16T22:32:30.865Z,18.30
2023-04-16T22:34:57.736Z,23.48
2023-04-16T22:37:24.607Z,18.15
2023-04-16T22:39:51.370Z,19.08
2023-04-16T22:42:17.857Z,21.60
2023-04-16T22:44:44.505Z,22.77
2023-04-16T22:47:10.946Z,20.10
2023-04-16T22:49:37.634Z,21.50
2023-04-16T22:52:04.283Z,23.67
2023-04-16T22:54:31.924Z,23.02
2023-04-16T22:56:58.713Z,23.95
2023-04-16T22:59:25.452Z,21.48
2023-04-16T23:01:52.851Z,26.98
2023-04-16T23:04:19.807Z,18.38
2023-04-16T23:06:46.325Z,20.05
2023-04-16T23:09:13.323Z,18.05
2023-04-16T23:11:40.394Z,20.05
2023-04-16T23:14:07.581Z,20.98
2023-04-16T23:16:34.173Z,19.83
2023-04-16T23:19:00.981Z,19.77
2023-04-16T23:21:27.393Z,26.23
2023-04-16T23:23:54.283Z,24.48
2023-04-16T23:26:21.028Z,20.63
2023-04-16T23:28:47.489Z,19.65
2023-04-16T23:31:14.149Z,21.50
2023-04-16T23:33:40.856Z,18.25
2023-04-16T23:36:07.889Z,18.00
2023-04-16T23:38:34.529Z,18.65
2023-04-16T23:41:01.030Z,19.17
2023-04-16T23:43:27.822Z,17.98
2023-04-16T23:45:54.263Z,17.13
2023-04-16T23:48:21.078Z,22.92
2023-04-16T23:50:47.558Z,17.73
2023-04-16T23:53:14.018Z,16.65
2023-04-16T23:55:40.760Z,19.75
2023-04-16T23:58:07.357Z,17.70
